sensor_id;sensor_type;location;lat;lon;timestamp;temperature;humidity
5792;DHT22;2922;53.482;10.006;2023-05-17T00:01:45;9.80;99.90
5792;DHT22;2922;53.482;10.006;2023-05-17T00:04:11;9.90;99.90
5792;DHT22;2922;53.482;10.006;2023-05-17T00:06:37;9.80;99.90
5792;DHT22;2922;53.482;10.006;2023-05-17T00:09:02;9.80;99.90
5792;DHT22;2922;53.482;10.006;2023-05-17T00:11:28;9.80;99.90
5792;DHT22;2922;53.482;10.006;2023-05-17T00:13:53;9.70;99.90
5792;DHT22;2922;53.482;10.006;2023-05-17T00:16:19;9.70;99.90
5792;DHT22;2922;53.482;10.006;2023-05-17T00:18:45;9.70;99.90
5792;DHT22;2922;53.482;10.006;2023-05-17T00:21:10;9.70;99.90
5792;DHT22;2922;53.482;10.006;2023-05-17T00:23:36;9.60;99.90
5792;DHT22;2922;53.482;10.006;2023-05-17T00:26:01;9.60;99.90
5792;DHT22;2922;53.482;10.006;2023-05-17T00:28:27;9.60;99.90
5792;DHT22;2922;53.482;10.006;2023-05-17T00:30:52;9.50;99.90
5792;DHT22;2922;53.482;10.006;2023-05-17T00:33:18;9.50;99.90
5792;DHT22;2922;53.482;10.006;2023-05-17T00:35:43;9.40;99.90
5792;DHT22;2922;53.482;10.006;2023-05-17T00:38:09;9.50;99.90
5792;DHT22;2922;53.482;10.006;2023-05-17T00:40:34;9.40;99.90
5792;DHT22;2922;53.482;10.006;2023-05-17T00:43:00;9.40;99.90
5792;DHT22;2922;53.482;10.006;2023-05-17T00:45:25;9.30;99.90
5792;DHT22;2922;53.482;10.006;2023-05-17T00:47:51;9.30;99.90
5792;DHT22;2922;53.482;10.006;2023-05-17T00:50:17;9.30;99.90
5792;DHT22;2922;53.482;10.006;2023-05-17T00:52:42;9.20;99.90
5792;DHT22;2922;53.482;10.006;2023-05-17T00:55:08;9.10;99.90
5792;DHT22;2922;53.482;10.006;2023-05-17T00:57:34;9.10;99.90
5792;DHT22;2922;53.482;10.006;2023-05-17T01:00:00;9.00;99.90
5792;DHT22;2922;53.482;10.006;2023-05-17T01:02:25;9.00;99.90
5792;DHT22;2922;53.482;10.006;2023-05-17T01:04:51;8.90;99.90
5792;DHT22;2922;53.482;10.006;2023-05-17T01:07:16;8.90;99.90
5792;DHT22;2922;53.482;10.006;2023-05-17T01:09:42;8.90;99.90
5792;DHT22;2922;53.482;10.006;2023-05-17T01:15:21;8.90;99.90
5792;DHT22;2922;53.482;10.006;2023-05-17T01:18:08;8.80;99.90
5792;DHT22;2922;53.482;10.006;2023-05-17T01:20:39;8.90;99.90
5792;DHT22;2922;53.482;10.006;2023-05-17T01:26:13;8.90;99.90
5792;DHT22;2922;53.482;10.006;2023-05-17T01:28:40;8.90;99.90
5792;DHT22;2922;53.482;10.006;2023-05-17T01:31:08;8.80;99.90
5792;DHT22;2922;53.482;10.006;2023-05-17T01:33:35;8.80;99.90
5792;DHT22;2922;53.482;10.006;2023-05-17T01:36:01;8.70;99.90
5792;DHT22;2922;53.482;10.006;2023-05-17T01:38:27;8.70;99.90
5792;DHT22;2922;53.482;10.006;2023-05-17T01:41:04;8.70;99.90
5792;DHT22;2922;53.482;10.006;2023-05-17T01:44:21;8.70;99.90
5792;DHT22;2922;53.482;10.006;2023-05-17T01:46:30;8.70;99.90
5792;DHT22;2922;53.482;10.006;2023-05-17T01:49:20;8.70;99.90
5792;DHT22;2922;53.482;10.006;2023-05-17T01:54:46;8.70;99.90
5792;DHT22;2922;53.482;10.006;2023-05-17T01:57:12;8.60;99.90
5792;DHT22;2922;53.482;10.006;2023-05-17T01:59:39;8.60;99.90
5792;DHT22;2922;53.482;10.006;2023-05-17T02:02:05;8.60;99.90
5792;DHT22;2922;53.482;10.006;2023-05-17T02:04:36;8.60;99.90
5792;DHT22;2922;53.482;10.006;2023-05-17T02:07:02;8.60;99.90
5792;DHT22;2922;53.482;10.006;2023-05-17T02:09:28;8.60;99.90
5792;DHT22;2922;53.482;10.006;2023-05-17T02:11:54;8.60;99.90
5792;DHT22;2922;53.482;10.006;2023-05-17T02:14:19;8.50;99.90
5792;DHT22;2922;53.482;10.006;2023-05-17T02:16:45;8.60;99.90
5792;DHT22;2922;53.482;10.006;2023-05-17T02:19:10;8.60;99.90
5792;DHT22;2922;53.482;10.006;2023-05-17T02:21:37;8.60;99.90
5792;DHT22;2922;53.482;10.006;2023-05-17T02:24:03;8.60;99.90
5792;DHT22;2922;53.482;10.006;2023-05-17T02:26:29;8.60;99.90
5792;DHT22;2922;53.482;10.006;2023-05-17T02:28:56;8.60;99.90
5792;DHT22;2922;53.482;10.006;2023-05-17T02:31:21;8.50;99.90
5792;DHT22;2922;53.482;10.006;2023-05-17T02:33:49;8.50;99.90
5792;DHT22;2922;53.482;10.006;2023-05-17T02:36:14;8.50;99.90
5792;DHT22;2922;53.482;10.006;2023-05-17T02:38:40;8.50;99.90
5792;DHT22;2922;53.482;10.006;2023-05-17T02:41:06;8.50;99.90
5792;DHT22;2922;53.482;10.006;2023-05-17T02:43:31;8.50;99.90
5792;DHT22;2922;53.482;10.006;2023-05-17T02:45:57;8.40;99.90
5792;DHT22;2922;53.482;10.006;2023-05-17T02:48:22;8.40;99.90
5792;DHT22;2922;53.482;10.006;2023-05-17T02:50:48;8.40;99.90
5792;DHT22;2922;53.482;10.006;2023-05-17T02:53:13;8.30;99.90
5792;DHT22;2922;53.482;10.006;2023-05-17T02:55:39;8.30;99.90
5792;DHT22;2922;53.482;10.006;2023-05-17T02:58:04;8.30;99.90
5792;DHT22;2922;53.482;10.006;2023-05-17T03:00:30;8.20;99.90
5792;DHT22;2922;53.482;10.006;2023-05-17T03:02:56;8.20;99.90
5792;DHT22;2922;53.482;10.006;2023-05-17T03:05:21;8.20;99.90
5792;DHT22;2922;53.482;10.006;2023-05-17T03:07:47;8.20;99.90
5792;DHT22;2922;53.482;10.006;2023-05-17T03:10:12;8.20;99.90
5792;DHT22;2922;53.482;10.006;2023-05-17T03:12:38;8.10;99.90
5792;DHT22;2922;53.482;10.006;2023-05-17T03:15:04;8.10;99.90
5792;DHT22;2922;53.482;10.006;2023-05-17T03:17:29;8.10;99.90
5792;DHT22;2922;53.482;10.006;2023-05-17T03:19:55;8.00;99.90
5792;DHT22;2922;53.482;10.006;2023-05-17T03:22:21;8.00;99.90
5792;DHT22;2922;53.482;10.006;2023-05-17T03:24:47;8.00;99.90
5792;DHT22;2922;53.482;10.006;2023-05-17T03:27:12;8.00;99.90
5792;DHT22;2922;53.482;10.006;2023-05-17T03:29:38;8.00;99.90
5792;DHT22;2922;53.482;10.006;2023-05-17T03:32:03;8.00;99.90
5792;DHT22;2922;53.482;10.006;2023-05-17T03:34:29;8.00;99.90
5792;DHT22;2922;53.482;10.006;2023-05-17T03:36:55;8.00;99.90
5792;DHT22;2922;53.482;10.006;2023-05-17T03:39:20;8.10;99.90
5792;DHT22;2922;53.482;10.006;2023-05-17T03:41:46;8.10;99.90
5792;DHT22;2922;53.482;10.006;2023-05-17T03:44:11;8.10;99.90
5792;DHT22;2922;53.482;10.006;2023-05-17T03:46:37;8.20;99.90
5792;DHT22;2922;53.482;10.006;2023-05-17T03:49:02;8.20;99.90
5792;DHT22;2922;53.482;10.006;2023-05-17T03:51:28;8.20;99.90
5792;DHT22;2922;53.482;10.006;2023-05-17T03:53:58;8.20;99.90
5792;DHT22;2922;53.482;10.006;2023-05-17T03:56:25;8.30;99.90
5792;DHT22;2922;53.482;10.006;2023-05-17T03:58:50;8.30;99.90
5792;DHT22;2922;53.482;10.006;2023-05-17T04:01:16;8.30;99.90
5792;DHT22;2922;53.482;10.006;2023-05-17T04:03:41;8.30;99.90
5792;DHT22;2922;53.482;10.006;2023-05-17T04:06:07;8.30;99.90
5792;DHT22;2922;53.482;10.006;2023-05-17T04:08:34;8.40;99.90
5792;DHT22;2922;53.482;10.006;2023-05-17T04:11:00;8.40;99.90
5792;DHT22;2922;53.482;10.006;2023-05-17T04:13:37;8.30;99.90
5792;DHT22;2922;53.482;10.006;2023-05-17T04:16:03;8.30;99.90
5792;DHT22;2922;53.482;10.006;2023-05-17T04:18:29;8.30;99.90
5792;DHT22;2922;53.482;10.006;2023-05-17T04:20:54;8.30;99.90
5792;DHT22;2922;53.482;10.006;2023-05-17T04:23:20;8.20;99.90
5792;DHT22;2922;53.482;10.006;2023-05-17T04:25:46;8.20;99.90
5792;DHT22;2922;53.482;10.006;2023-05-17T04:28:11;8.20;99.90
5792;DHT22;2922;53.482;10.006;2023-05-17T04:30:41;8.20;99.90
5792;DHT22;2922;53.482;10.006;2023-05-17T04:33:07;8.20;99.90
5792;DHT22;2922;53.482;10.006;2023-05-17T04:35:32;8.20;99.90
5792;DHT22;2922;53.482;10.006;2023-05-17T04:37:58;8.20;99.90
5792;DHT22;2922;53.482;10.006;2023-05-17T04:40:23;8.30;99.90
5792;DHT22;2922;53.482;10.006;2023-05-17T04:42:49;8.30;99.90
5792;DHT22;2922;53.482;10.006;2023-05-17T04:45:15;8.40;99.90
5792;DHT22;2922;53.482;10.006;2023-05-17T04:47:41;8.40;99.90
5792;DHT22;2922;53.482;10.006;2023-05-17T04:50:08;8.40;99.90
5792;DHT22;2922;53.482;10.006;2023-05-17T04:52:33;8.40;99.90
5792;DHT22;2922;53.482;10.006;2023-05-17T04:54:59;8.40;99.90
5792;DHT22;2922;53.482;10.006;2023-05-17T04:57:24;8.50;99.90
5792;DHT22;2922;53.482;10.006;2023-05-17T04:59:50;8.50;99.90
5792;DHT22;2922;53.482;10.006;2023-05-17T05:02:15;8.60;99.90
5792;DHT22;2922;53.482;10.006;2023-05-17T05:04:41;8.60;99.90
5792;DHT22;2922;53.482;10.006;2023-05-17T05:07:06;8.60;99.90
5792;DHT22;2922;53.482;10.006;2023-05-17T05:09:32;8.60;99.90
5792;DHT22;2922;53.482;10.006;2023-05-17T05:11:58;8.60;99.90
5792;DHT22;2922;53.482;10.006;2023-05-17T05:14:23;8.60;99.90
5792;DHT22;2922;53.482;10.006;2023-05-17T05:16:49;8.60;99.90
5792;DHT22;2922;53.482;10.006;2023-05-17T05:19:14;8.60;99.90
5792;DHT22;2922;53.482;10.006;2023-05-17T05:21:43;8.60;99.90
5792;DHT22;2922;53.482;10.006;2023-05-17T05:24:09;8.70;99.90
5792;DHT22;2922;53.482;10.006;2023-05-17T05:26:35;8.70;99.90
5792;DHT22;2922;53.482;10.006;2023-05-17T05:29:00;8.70;99.90
5792;DHT22;2922;53.482;10.006;2023-05-17T05:31:26;8.70;99.90
5792;DHT22;2922;53.482;10.006;2023-05-17T05:33:52;8.70;99.90
5792;DHT22;2922;53.482;10.006;2023-05-17T05:36:18;8.80;99.90
5792;DHT22;2922;53.482;10.006;2023-05-17T05:38:43;8.80;99.90
5792;DHT22;2922;53.482;10.006;2023-05-17T05:41:09;8.90;99.90
5792;DHT22;2922;53.482;10.006;2023-05-17T05:43:34;9.00;99.90
5792;DHT22;2922;53.482;10.006;2023-05-17T05:46:01;9.10;99.90
5792;DHT22;2922;53.482;10.006;2023-05-17T05:48:27;9.20;99.90
5792;DHT22;2922;53.482;10.006;2023-05-17T05:50:52;9.20;99.90
5792;DHT22;2922;53.482;10.006;2023-05-17T05:53:18;9.20;99.90
5792;DHT22;2922;53.482;10.006;2023-05-17T05:55:44;9.20;99.90
5792;DHT22;2922;53.482;10.006;2023-05-17T05:58:09;9.30;99.90
5792;DHT22;2922;53.482;10.006;2023-05-17T06:00:35;9.30;99.90
5792;DHT22;2922;53.482;10.006;2023-05-17T06:03:01;9.40;99.90
5792;DHT22;2922;53.482;10.006;2023-05-17T06:05:27;9.40;99.90
5792;DHT22;2922;53.482;10.006;2023-05-17T06:07:52;9.40;99.90
5792;DHT22;2922;53.482;10.006;2023-05-17T06:10:18;9.50;99.90
5792;DHT22;2922;53.482;10.006;2023-05-17T06:12:44;9.60;99.90
5792;DHT22;2922;53.482;10.006;2023-05-17T06:15:09;9.60;99.90
5792;DHT22;2922;53.482;10.006;2023-05-17T06:17:35;9.50;99.90
5792;DHT22;2922;53.482;10.006;2023-05-17T06:20:01;9.50;99.90
5792;DHT22;2922;53.482;10.006;2023-05-17T06:22:27;9.60;99.90
5792;DHT22;2922;53.482;10.006;2023-05-17T06:24:52;9.60;99.90
5792;DHT22;2922;53.482;10.006;2023-05-17T06:27:18;9.60;99.90
5792;DHT22;2922;53.482;10.006;2023-05-17T06:29:43;9.70;99.90
5792;DHT22;2922;53.482;10.006;2023-05-17T06:32:09;9.70;99.90
5792;DHT22;2922;53.482;10.006;2023-05-17T06:34:34;9.70;99.90
5792;DHT22;2922;53.482;10.006;2023-05-17T06:37:00;9.70;99.90
5792;DHT22;2922;53.482;10.006;2023-05-17T06:39:25;9.70;99.90
5792;DHT22;2922;53.482;10.006;2023-05-17T06:41:51;9.70;99.90
5792;DHT22;2922;53.482;10.006;2023-05-17T06:44:17;9.70;99.90
5792;DHT22;2922;53.482;10.006;2023-05-17T06:46:42;9.60;99.90
5792;DHT22;2922;53.482;10.006;2023-05-17T06:49:08;9.60;99.90
5792;DHT22;2922;53.482;10.006;2023-05-17T06:51:33;9.60;99.90
5792;DHT22;2922;53.482;10.006;2023-05-17T06:53:59;9.70;99.90
5792;DHT22;2922;53.482;10.006;2023-05-17T06:56:25;9.70;99.90
5792;DHT22;2922;53.482;10.006;2023-05-17T06:58:50;9.70;99.90
5792;DHT22;2922;53.482;10.006;2023-05-17T07:01:16;9.80;99.90
5792;DHT22;2922;53.482;10.006;2023-05-17T07:03:42;9.90;99.90
5792;DHT22;2922;53.482;10.006;2023-05-17T07:06:07;10.00;99.90
5792;DHT22;2922;53.482;10.006;2023-05-17T07:08:33;9.80;99.90
5792;DHT22;2922;53.482;10.006;2023-05-17T07:10:58;9.80;99.90
5792;DHT22;2922;53.482;10.006;2023-05-17T07:13:24;9.80;99.90
5792;DHT22;2922;53.482;10.006;2023-05-17T07:15:49;9.90;99.90
5792;DHT22;2922;53.482;10.006;2023-05-17T07:18:15;10.00;99.90
5792;DHT22;2922;53.482;10.006;2023-05-17T07:20:41;10.10;99.90
5792;DHT22;2922;53.482;10.006;2023-05-17T07:23:06;10.20;99.90
5792;DHT22;2922;53.482;10.006;2023-05-17T07:25:32;10.30;99.90
5792;DHT22;2922;53.482;10.006;2023-05-17T07:27:58;10.10;99.90
5792;DHT22;2922;53.482;10.006;2023-05-17T07:30:23;10.20;99.90
5792;DHT22;2922;53.482;10.006;2023-05-17T07:32:49;10.10;99.90
5792;DHT22;2922;53.482;10.006;2023-05-17T07:35:14;10.30;99.90
5792;DHT22;2922;53.482;10.006;2023-05-17T07:37:40;10.40;99.90
5792;DHT22;2922;53.482;10.006;2023-05-17T07:40:06;10.30;99.90
5792;DHT22;2922;53.482;10.006;2023-05-17T07:42:32;10.30;99.90
5792;DHT22;2922;53.482;10.006;2023-05-17T07:44:58;10.40;99.90
5792;DHT22;2922;53.482;10.006;2023-05-17T07:47:23;10.30;99.90
5792;DHT22;2922;53.482;10.006;2023-05-17T07:49:49;10.30;99.90
5792;DHT22;2922;53.482;10.006;2023-05-17T07:52:14;10.30;99.90
5792;DHT22;2922;53.482;10.006;2023-05-17T07:54:40;10.30;99.90
5792;DHT22;2922;53.482;10.006;2023-05-17T07:57:06;10.60;99.90
5792;DHT22;2922;53.482;10.006;2023-05-17T07:59:31;10.80;99.90
5792;DHT22;2922;53.482;10.006;2023-05-17T08:01:57;11.00;99.90
5792;DHT22;2922;53.482;10.006;2023-05-17T08:04:23;11.10;99.90
5792;DHT22;2922;53.482;10.006;2023-05-17T08:06:49;10.90;99.90
5792;DHT22;2922;53.482;10.006;2023-05-17T08:09:15;11.00;99.90
5792;DHT22;2922;53.482;10.006;2023-05-17T08:11:41;11.00;99.90
5792;DHT22;2922;53.482;10.006;2023-05-17T08:14:13;11.00;99.90
5792;DHT22;2922;53.482;10.006;2023-05-17T08:16:41;11.10;99.90
5792;DHT22;2922;53.482;10.006;2023-05-17T08:19:06;11.00;99.90
5792;DHT22;2922;53.482;10.006;2023-05-17T08:21:32;10.80;99.90
5792;DHT22;2922;53.482;10.006;2023-05-17T08:23:57;10.80;99.90
5792;DHT22;2922;53.482;10.006;2023-05-17T08:26:23;10.90;99.90
5792;DHT22;2922;53.482;10.006;2023-05-17T08:28:48;10.90;99.90
5792;DHT22;2922;53.482;10.006;2023-05-17T08:31:14;11.00;99.90
5792;DHT22;2922;53.482;10.006;2023-05-17T08:33:40;10.90;99.90
5792;DHT22;2922;53.482;10.006;2023-05-17T08:36:07;11.00;99.90
5792;DHT22;2922;53.482;10.006;2023-05-17T08:38:33;11.10;99.90
5792;DHT22;2922;53.482;10.006;2023-05-17T08:40:59;11.00;99.90
5792;DHT22;2922;53.482;10.006;2023-05-17T08:43:27;11.20;99.90
5792;DHT22;2922;53.482;10.006;2023-05-17T08:45:53;11.70;99.90
5792;DHT22;2922;53.482;10.006;2023-05-17T08:48:21;12.00;99.90
5792;DHT22;2922;53.482;10.006;2023-05-17T08:50:49;12.20;99.90
5792;DHT22;2922;53.482;10.006;2023-05-17T08:53:16;12.30;99.90
5792;DHT22;2922;53.482;10.006;2023-05-17T08:55:45;12.00;99.90
5792;DHT22;2922;53.482;10.006;2023-05-17T08:58:15;12.00;99.90
5792;DHT22;2922;53.482;10.006;2023-05-17T09:00:42;11.80;99.90
5792;DHT22;2922;53.482;10.006;2023-05-17T09:03:08;11.80;99.90
5792;DHT22;2922;53.482;10.006;2023-05-17T09:05:36;12.20;99.90
5792;DHT22;2922;53.482;10.006;2023-05-17T09:08:03;12.70;99.90
5792;DHT22;2922;53.482;10.006;2023-05-17T09:10:29;12.90;99.90
5792;DHT22;2922;53.482;10.006;2023-05-17T09:12:56;13.00;99.90
5792;DHT22;2922;53.482;10.006;2023-05-17T09:15:22;12.50;99.90
5792;DHT22;2922;53.482;10.006;2023-05-17T09:17:52;12.20;99.90
5792;DHT22;2922;53.482;10.006;2023-05-17T09:20:28;11.80;99.90
5792;DHT22;2922;53.482;10.006;2023-05-17T09:23:01;11.70;99.90
5792;DHT22;2922;53.482;10.006;2023-05-17T09:25:28;12.00;99.90
5792;DHT22;2922;53.482;10.006;2023-05-17T09:27:54;12.30;99.90
5792;DHT22;2922;53.482;10.006;2023-05-17T09:30:28;12.50;99.90
5792;DHT22;2922;53.482;10.006;2023-05-17T09:32:55;12.50;99.90
5792;DHT22;2922;53.482;10.006;2023-05-17T09:35:29;12.90;99.90
5792;DHT22;2922;53.482;10.006;2023-05-17T09:40:36;13.00;99.90
5792;DHT22;2922;53.482;10.006;2023-05-17T09:43:02;13.00;99.90
5792;DHT22;2922;53.482;10.006;2023-05-17T09:45:27;13.10;99.90
5792;DHT22;2922;53.482;10.006;2023-05-17T09:47:56;13.20;99.90
5792;DHT22;2922;53.482;10.006;2023-05-17T09:50:21;13.30;99.70
5792;DHT22;2922;53.482;10.006;2023-05-17T09:52:47;13.40;99.90
5792;DHT22;2922;53.482;10.006;2023-05-17T09:55:13;13.90;99.90
5792;DHT22;2922;53.482;10.006;2023-05-17T09:57:40;13.80;99.90
5792;DHT22;2922;53.482;10.006;2023-05-17T10:00:07;13.60;99.90
5792;DHT22;2922;53.482;10.006;2023-05-17T10:02:37;13.70;99.90
5792;DHT22;2922;53.482;10.006;2023-05-17T10:05:04;13.60;99.90
5792;DHT22;2922;53.482;10.006;2023-05-17T10:07:33;13.30;99.90
5792;DHT22;2922;53.482;10.006;2023-05-17T10:09:59;13.20;99.90
5792;DHT22;2922;53.482;10.006;2023-05-17T10:12:27;13.00;99.90
5792;DHT22;2922;53.482;10.006;2023-05-17T10:14:55;12.80;99.90
5792;DHT22;2922;53.482;10.006;2023-05-17T10:17:21;12.70;99.80
5792;DHT22;2922;53.482;10.006;2023-05-17T10:19:48;12.60;97.00
5792;DHT22;2922;53.482;10.006;2023-05-17T10:22:14;12.60;96.90
5792;DHT22;2922;53.482;10.006;2023-05-17T10:24:42;12.40;95.20
5792;DHT22;2922;53.482;10.006;2023-05-17T10:27:08;12.70;95.80
5792;DHT22;2922;53.482;10.006;2023-05-17T10:29:35;13.50;97.00
5792;DHT22;2922;53.482;10.006;2023-05-17T10:32:04;13.70;94.80
5792;DHT22;2922;53.482;10.006;2023-05-17T10:34:34;13.30;94.50
5792;DHT22;2922;53.482;10.006;2023-05-17T10:37:00;13.10;96.90
5792;DHT22;2922;53.482;10.006;2023-05-17T10:39:27;13.30;93.30
5792;DHT22;2922;53.482;10.006;2023-05-17T10:41:55;13.40;91.90
5792;DHT22;2922;53.482;10.006;2023-05-17T10:44:21;13.50;90.10
5792;DHT22;2922;53.482;10.006;2023-05-17T10:46:53;14.00;93.80
5792;DHT22;2922;53.482;10.006;2023-05-17T10:49:19;13.90;90.30
5792;DHT22;2922;53.482;10.006;2023-05-17T10:51:45;13.90;86.30
5792;DHT22;2922;53.482;10.006;2023-05-17T10:54:12;13.40;87.30
5792;DHT22;2922;53.482;10.006;2023-05-17T10:56:40;13.20;91.50
5792;DHT22;2922;53.482;10.006;2023-05-17T10:59:23;13.30;93.50
5792;DHT22;2922;53.482;10.006;2023-05-17T11:02:06;13.50;92.90
5792;DHT22;2922;53.482;10.006;2023-05-17T11:04:43;13.40;92.60
5792;DHT22;2922;53.482;10.006;2023-05-17T11:09:53;13.80;92.10
5792;DHT22;2922;53.482;10.006;2023-05-17T11:15:04;13.50;91.10
5792;DHT22;2922;53.482;10.006;2023-05-17T11:25:33;13.00;98.70
5792;DHT22;2922;53.482;10.006;2023-05-17T11:30:33;13.50;93.60
5792;DHT22;2922;53.482;10.006;2023-05-17T11:33:05;13.50;90.20
5792;DHT22;2922;53.482;10.006;2023-05-17T11:35:38;13.90;91.40
5792;DHT22;2922;53.482;10.006;2023-05-17T11:38:22;13.80;92.60
5792;DHT22;2922;53.482;10.006;2023-05-17T11:40:53;13.80;93.10
5792;DHT22;2922;53.482;10.006;2023-05-17T11:43:25;13.50;94.10
5792;DHT22;2922;53.482;10.006;2023-05-17T11:45:57;13.20;91.40
5792;DHT22;2922;53.482;10.006;2023-05-17T11:48:26;13.40;90.30
5792;DHT22;2922;53.482;10.006;2023-05-17T11:50:53;13.50;88.40
5792;DHT22;2922;53.482;10.006;2023-05-17T11:53:19;13.80;93.50
5792;DHT22;2922;53.482;10.006;2023-05-17T11:55:49;13.90;92.20
5792;DHT22;2922;53.482;10.006;2023-05-17T11:58:19;13.70;92.40
5792;DHT22;2922;53.482;10.006;2023-05-17T12:00:52;13.10;94.20
5792;DHT22;2922;53.482;10.006;2023-05-17T12:05:46;12.90;99.90
5792;DHT22;2922;53.482;10.006;2023-05-17T12:08:14;13.30;99.90
5792;DHT22;2922;53.482;10.006;2023-05-17T12:10:48;13.80;99.90
5792;DHT22;2922;53.482;10.006;2023-05-17T12:13:14;14.20;99.90
5792;DHT22;2922;53.482;10.006;2023-05-17T12:15:44;14.30;98.90
5792;DHT22;2922;53.482;10.006;2023-05-17T12:18:10;14.00;97.00
5792;DHT22;2922;53.482;10.006;2023-05-17T12:20:36;13.60;94.60
5792;DHT22;2922;53.482;10.006;2023-05-17T12:23:03;13.30;95.70
5792;DHT22;2922;53.482;10.006;2023-05-17T12:25:29;13.00;93.50
5792;DHT22;2922;53.482;10.006;2023-05-17T12:28:15;13.30;97.30
5792;DHT22;2922;53.482;10.006;2023-05-17T12:30:41;13.80;97.80
5792;DHT22;2922;53.482;10.006;2023-05-17T12:33:07;13.60;94.10
5792;DHT22;2922;53.482;10.006;2023-05-17T12:35:33;12.90;96.40
5792;DHT22;2922;53.482;10.006;2023-05-17T12:37:59;13.40;98.70
5792;DHT22;2922;53.482;10.006;2023-05-17T12:40:26;13.40;93.50
5792;DHT22;2922;53.482;10.006;2023-05-17T12:43:00;13.40;93.40
5792;DHT22;2922;53.482;10.006;2023-05-17T12:45:26;13.60;92.70
5792;DHT22;2922;53.482;10.006;2023-05-17T12:47:52;13.40;91.90
5792;DHT22;2922;53.482;10.006;2023-05-17T12:50:27;13.60;95.70
5792;DHT22;2922;53.482;10.006;2023-05-17T12:52:53;13.20;95.70
5792;DHT22;2922;53.482;10.006;2023-05-17T12:55:18;13.10;96.40
5792;DHT22;2922;53.482;10.006;2023-05-17T12:57:51;13.00;97.10
5792;DHT22;2922;53.482;10.006;2023-05-17T13:00:18;13.00;96.20
5792;DHT22;2922;53.482;10.006;2023-05-17T13:02:44;13.00;97.10
5792;DHT22;2922;53.482;10.006;2023-05-17T13:05:17;13.50;92.60
5792;DHT22;2922;53.482;10.006;2023-05-17T13:07:44;14.00;92.30
5792;DHT22;2922;53.482;10.006;2023-05-17T13:10:26;14.30;78.60
5792;DHT22;2922;53.482;10.006;2023-05-17T13:12:59;14.40;80.10
5792;DHT22;2922;53.482;10.006;2023-05-17T13:15:32;14.20;75.00
5792;DHT22;2922;53.482;10.006;2023-05-17T13:17:58;14.00;72.80
5792;DHT22;2922;53.482;10.006;2023-05-17T13:20:26;13.40;78.00
5792;DHT22;2922;53.482;10.006;2023-05-17T13:22:51;13.30;83.80
5792;DHT22;2922;53.482;10.006;2023-05-17T13:25:18;13.50;89.50
5792;DHT22;2922;53.482;10.006;2023-05-17T13:27:45;13.60;92.70
5792;DHT22;2922;53.482;10.006;2023-05-17T13:30:16;13.60;91.40
5792;DHT22;2922;53.482;10.006;2023-05-17T13:32:42;13.40;90.90
5792;DHT22;2922;53.482;10.006;2023-05-17T13:35:09;13.40;92.10
5792;DHT22;2922;53.482;10.006;2023-05-17T13:37:34;13.80;93.30
5792;DHT22;2922;53.482;10.006;2023-05-17T13:40:04;13.90;91.00
5792;DHT22;2922;53.482;10.006;2023-05-17T13:42:29;14.00;90.90
5792;DHT22;2922;53.482;10.006;2023-05-17T13:44:56;14.30;86.30
5792;DHT22;2922;53.482;10.006;2023-05-17T13:47:22;14.00;76.90
5792;DHT22;2922;53.482;10.006;2023-05-17T13:49:47;14.00;85.60
5792;DHT22;2922;53.482;10.006;2023-05-17T13:52:13;14.40;82.20
5792;DHT22;2922;53.482;10.006;2023-05-17T13:54:39;14.50;79.50
5792;DHT22;2922;53.482;10.006;2023-05-17T13:57:05;14.10;78.20
5792;DHT22;2922;53.482;10.006;2023-05-17T13:59:32;14.00;80.30
5792;DHT22;2922;53.482;10.006;2023-05-17T14:01:57;13.70;81.20
5792;DHT22;2922;53.482;10.006;2023-05-17T14:04:23;13.60;84.60
5792;DHT22;2922;53.482;10.006;2023-05-17T14:06:49;13.30;85.80
5792;DHT22;2922;53.482;10.006;2023-05-17T14:09:16;13.30;91.50
5792;DHT22;2922;53.482;10.006;2023-05-17T14:11:41;13.50;91.60
5792;DHT22;2922;53.482;10.006;2023-05-17T14:14:07;13.30;92.20
5792;DHT22;2922;53.482;10.006;2023-05-17T14:16:32;13.40;93.90
5792;DHT22;2922;53.482;10.006;2023-05-17T14:18:59;13.20;94.60
5792;DHT22;2922;53.482;10.006;2023-05-17T14:21:24;13.10;95.30
5792;DHT22;2922;53.482;10.006;2023-05-17T14:23:50;13.00;96.30
5792;DHT22;2922;53.482;10.006;2023-05-17T14:26:16;12.80;97.60
5792;DHT22;2922;53.482;10.006;2023-05-17T14:28:42;12.90;95.90
5792;DHT22;2922;53.482;10.006;2023-05-17T14:31:08;13.00;94.60
5792;DHT22;2922;53.482;10.006;2023-05-17T14:33:34;13.40;94.90
5792;DHT22;2922;53.482;10.006;2023-05-17T14:36:00;13.50;84.80
5792;DHT22;2922;53.482;10.006;2023-05-17T14:38:26;13.60;84.30
5792;DHT22;2922;53.482;10.006;2023-05-17T14:40:51;13.40;86.50
5792;DHT22;2922;53.482;10.006;2023-05-17T14:43:17;13.20;85.10
5792;DHT22;2922;53.482;10.006;2023-05-17T14:45:44;13.00;86.70
5792;DHT22;2922;53.482;10.006;2023-05-17T14:48:10;13.00;89.20
5792;DHT22;2922;53.482;10.006;2023-05-17T14:50:35;13.00;87.40
5792;DHT22;2922;53.482;10.006;2023-05-17T14:53:01;12.90;84.80
5792;DHT22;2922;53.482;10.006;2023-05-17T14:55:27;13.00;88.30
5792;DHT22;2922;53.482;10.006;2023-05-17T14:57:52;12.80;88.30
5792;DHT22;2922;53.482;10.006;2023-05-17T15:00:20;12.80;91.90
5792;DHT22;2922;53.482;10.006;2023-05-17T15:02:45;12.90;92.60
5792;DHT22;2922;53.482;10.006;2023-05-17T15:05:11;12.70;93.10
5792;DHT22;2922;53.482;10.006;2023-05-17T15:07:37;12.40;91.80
5792;DHT22;2922;53.482;10.006;2023-05-17T15:10:03;12.50;93.10
5792;DHT22;2922;53.482;10.006;2023-05-17T15:12:29;12.70;93.00
5792;DHT22;2922;53.482;10.006;2023-05-17T15:14:56;12.50;87.20
5792;DHT22;2922;53.482;10.006;2023-05-17T15:17:22;12.40;89.40
5792;DHT22;2922;53.482;10.006;2023-05-17T15:19:48;12.50;91.20
5792;DHT22;2922;53.482;10.006;2023-05-17T15:22:14;12.30;91.10
5792;DHT22;2922;53.482;10.006;2023-05-17T15:24:39;12.20;92.10
5792;DHT22;2922;53.482;10.006;2023-05-17T15:27:05;12.30;92.80
5792;DHT22;2922;53.482;10.006;2023-05-17T15:29:31;12.30;93.70
5792;DHT22;2922;53.482;10.006;2023-05-17T15:31:57;12.20;93.70
5792;DHT22;2922;53.482;10.006;2023-05-17T15:34:25;12.20;91.90
5792;DHT22;2922;53.482;10.006;2023-05-17T15:36:56;12.30;93.70
5792;DHT22;2922;53.482;10.006;2023-05-17T15:39:22;12.50;91.80
5792;DHT22;2922;53.482;10.006;2023-05-17T15:41:48;12.60;88.20
5792;DHT22;2922;53.482;10.006;2023-05-17T15:44:14;12.60;86.30
5792;DHT22;2922;53.482;10.006;2023-05-17T15:46:39;12.40;84.40
5792;DHT22;2922;53.482;10.006;2023-05-17T15:49:05;12.40;89.60
5792;DHT22;2922;53.482;10.006;2023-05-17T15:51:30;12.50;91.90
5792;DHT22;2922;53.482;10.006;2023-05-17T15:53:56;12.30;92.50
5792;DHT22;2922;53.482;10.006;2023-05-17T15:56:22;12.30;96.70
5792;DHT22;2922;53.482;10.006;2023-05-17T15:58:48;12.20;96.30
5792;DHT22;2922;53.482;10.006;2023-05-17T16:01:14;12.20;95.20
5792;DHT22;2922;53.482;10.006;2023-05-17T16:03:39;12.20;95.80
5792;DHT22;2922;53.482;10.006;2023-05-17T16:06:05;12.20;95.70
5792;DHT22;2922;53.482;10.006;2023-05-17T16:08:31;12.00;91.90
5792;DHT22;2922;53.482;10.006;2023-05-17T16:10:57;12.10;93.10
5792;DHT22;2922;53.482;10.006;2023-05-17T16:13:22;12.20;94.40
5792;DHT22;2922;53.482;10.006;2023-05-17T16:15:48;12.10;95.40
5792;DHT22;2922;53.482;10.006;2023-05-17T16:18:13;12.10;96.40
5792;DHT22;2922;53.482;10.006;2023-05-17T16:20:40;12.10;96.70